createdAt,value
2023-03-29T00:00:52.101Z,1.88
2023-03-29T00:03:18.801Z,1.85
2023-03-29T00:05:45.850Z,1.86
2023-03-29T00:08:13.861Z,1.88
2023-03-29T00:10:41.019Z,1.85
2023-03-29T00:13:07.555Z,1.81
2023-03-29T00:15:34.148Z,1.83
2023-03-29T00:18:00.715Z,1.81
2023-03-29T00:20:27.540Z,1.80
2023-03-29T00:22:54.102Z,1.81
2023-03-29T00:25:22.228Z,1.81
2023-03-29T00:27:49.009Z,1.78
2023-03-29T00:30:15.932Z,1.74
2023-03-29T00:32:42.580Z,1.76
2023-03-29T00:35:09.584Z,1.75
2023-03-29T00:37:36.221Z,1.73
2023-03-29T00:40:03.376Z,1.71
2023-03-29T00:42:31.270Z,1.70
2023-03-29T00:45:00.924Z,1.69
2023-03-29T00:47:31.218Z,1.69
2023-03-29T00:50:02.643Z,1.68
2023-03-29T00:52:31.801Z,1.67
2023-03-29T00:55:01.496Z,1.66
2023-03-29T00:57:30.926Z,1.62
2023-03-29T01:00:01.129Z,1.60
2023-03-29T01:02:29.692Z,1.60
2023-03-29T01:05:01.000Z,1.60
2023-03-29T01:07:33.461Z,1.61
2023-03-29T01:10:07.326Z,1.61
2023-03-29T01:12:40.785Z,1.56
2023-03-29T01:15:11.432Z,1.55
2023-03-29T01:17:38.665Z,1.54
2023-03-29T01:20:12.312Z,1.61
2023-03-29T01:22:50.785Z,1.58
2023-03-29T01:25:26.067Z,1.58
2023-03-29T01:27:57.792Z,1.58
2023-03-29T01:30:29.405Z,1.59
2023-03-29T01:32:59.469Z,1.57
2023-03-29T01:35:32.972Z,1.58
2023-03-29T01:38:06.232Z,1.59
2023-03-29T01:40:33.673Z,1.60
2023-03-29T01:43:11.639Z,1.64
2023-03-29T01:45:45.456Z,1.66
2023-03-29T01:48:18.996Z,1.62
2023-03-29T01:50:50.425Z,1.63
2023-03-29T01:53:24.348Z,1.61
2023-03-29T01:55:54.965Z,1.60
2023-03-29T01:58:27.638Z,1.60
2023-03-29T02:00:54.929Z,1.61
2023-03-29T02:03:25.150Z,1.61
2023-03-29T02:05:53.804Z,1.57
2023-03-29T02:08:22.424Z,1.56
2023-03-29T02:10:49.944Z,1.54
2023-03-29T02:13:16.520Z,1.54
2023-03-29T02:15:45.503Z,1.53
2023-03-29T02:18:13.644Z,1.53
2023-03-29T02:20:43.392Z,1.56
2023-03-29T02:23:15.513Z,1.55
2023-03-29T02:25:43.975Z,1.56
2023-03-29T02:28:10.548Z,1.59
2023-03-29T02:30:44.225Z,1.57
2023-03-29T02:33:16.660Z,1.59
2023-03-29T02:35:51.516Z,1.57
2023-03-29T02:38:19.053Z,1.56
2023-03-29T02:40:46.651Z,1.55
2023-03-29T02:43:15.409Z,1.56
2023-03-29T02:45:43.873Z,1.53
2023-03-29T02:48:17.001Z,1.56
2023-03-29T02:50:47.575Z,1.56
2023-03-29T02:53:17.682Z,1.53
2023-03-29T02:55:44.228Z,1.54
2023-03-29T02:58:10.783Z,1.52
2023-03-29T03:00:39.489Z,1.54
2023-03-29T03:03:06.935Z,1.53
2023-03-29T03:05:35.410Z,1.54
2023-03-29T03:08:02.262Z,1.53
2023-03-29T03:10:28.807Z,1.54
2023-03-29T03:12:55.336Z,1.53
2023-03-29T03:15:21.922Z,1.55
2023-03-29T03:17:48.504Z,1.54
2023-03-29T03:20:15.243Z,1.54
2023-03-29T03:22:44.945Z,1.58
2023-03-29T03:25:11.812Z,1.59
2023-03-29T03:27:38.907Z,1.60
2023-03-29T03:30:06.634Z,1.60
2023-03-29T03:32:34.593Z,1.62
2023-03-29T03:35:01.489Z,1.62
2023-03-29T03:37:28.295Z,1.63
2023-03-29T03:39:56.352Z,1.63
2023-03-29T03:42:23.396Z,1.63
2023-03-29T03:44:50.092Z,1.62
2023-03-29T03:47:16.947Z,1.61
2023-03-29T03:49:43.510Z,1.62
2023-03-29T03:52:10.204Z,1.62
2023-03-29T03:54:36.803Z,1.64
2023-03-29T03:57:05.144Z,1.64
2023-03-29T03:59:31.780Z,1.64
2023-03-29T04:01:58.484Z,1.66
2023-03-29T04:04:25.579Z,1.66
2023-03-29T04:06:52.127Z,1.69
2023-03-29T04:09:18.699Z,1.68
2023-03-29T04:11:45.253Z,1.69
2023-03-29T04:14:13.312Z,1.68
2023-03-29T04:16:39.875Z,1.69
2023-03-29T04:19:06.402Z,1.69
2023-03-29T04:21:33.140Z,1.69
2023-03-29T04:23:59.835Z,1.71
2023-03-29T04:26:26.528Z,1.72
2023-03-29T04:28:53.196Z,1.72
2023-03-29T04:31:21.368Z,1.73
2023-03-29T04:33:47.957Z,1.74
2023-03-29T04:36:14.702Z,1.76
2023-03-29T04:38:41.442Z,1.78
2023-03-29T04:41:08.568Z,1.78
2023-03-29T04:43:35.186Z,1.79
2023-03-29T04:46:02.025Z,1.81
2023-03-29T04:48:30.148Z,1.80
2023-03-29T04:50:56.723Z,1.81
2023-03-29T04:53:23.339Z,1.81
2023-03-29T04:55:50.146Z,1.84
2023-03-29T04:58:16.846Z,1.85
2023-03-29T05:00:43.391Z,1.88
2023-03-29T05:03:09.982Z,1.89
2023-03-29T05:05:37.904Z,1.90
2023-03-29T05:08:04.788Z,1.92
2023-03-29T05:10:31.403Z,1.96
2023-03-29T05:12:57.962Z,1.97
2023-03-29T05:15:24.524Z,1.97
2023-03-29T05:17:51.253Z,1.97
2023-03-29T05:20:18.107Z,1.99
2023-03-29T05:22:46.122Z,1.99
2023-03-29T05:25:12.821Z,2.01
2023-03-29T05:27:39.409Z,2.05
2023-03-29T05:30:07.426Z,2.09
2023-03-29T05:32:36.152Z,2.12
2023-03-29T05:35:02.804Z,2.15
2023-03-29T05:37:29.482Z,2.19
2023-03-29T05:40:05.362Z,2.30
2023-03-29T05:42:33.077Z,2.39
2023-03-29T05:44:59.660Z,2.50
2023-03-29T05:47:26.450Z,2.60
2023-03-29T05:49:52.992Z,2.72
2023-03-29T05:52:19.747Z,2.79
2023-03-29T05:54:46.281Z,2.87
2023-03-29T05:57:14.238Z,2.91
2023-03-29T05:59:40.834Z,3.00
2023-03-29T06:02:07.441Z,3.02
2023-03-29T06:04:34.408Z,3.06
2023-03-29T06:07:01.193Z,3.11
2023-03-29T06:09:27.741Z,3.17
2023-03-29T06:11:54.283Z,3.22
2023-03-29T06:14:22.463Z,3.31
2023-03-29T06:16:49.058Z,3.37
2023-03-29T06:19:15.671Z,3.42
2023-03-29T06:21:42.212Z,3.47
2023-03-29T06:24:09.252Z,3.53
2023-03-29T06:26:35.842Z,3.57
2023-03-29T06:29:02.427Z,3.61
2023-03-29T06:31:30.349Z,3.71
2023-03-29T06:33:56.959Z,3.79
2023-03-29T06:36:23.667Z,3.91
2023-03-29T06:38:50.215Z,3.97
2023-03-29T06:41:16.765Z,4.01
2023-03-29T06:43:43.361Z,4.11
2023-03-29T06:46:09.963Z,4.16
2023-03-29T06:48:38.146Z,4.21
2023-03-29T06:51:05.417Z,4.28
2023-03-29T06:53:31.942Z,4.34
2023-03-29T06:55:58.723Z,4.41
2023-03-29T06:58:25.403Z,4.51
2023-03-29T07:00:51.971Z,4.57
2023-03-29T07:03:18.465Z,4.61
2023-03-29T07:05:46.556Z,4.73
2023-03-29T07:08:13.391Z,4.81
2023-03-29T07:10:41.279Z,4.81
2023-03-29T07:13:09.132Z,4.86
2023-03-29T07:15:35.982Z,4.87
2023-03-29T07:18:02.889Z,4.86
2023-03-29T07:20:29.520Z,4.99
2023-03-29T07:22:57.825Z,5.06
2023-03-29T07:25:25.516Z,5.17
2023-03-29T07:27:52.110Z,5.22
2023-03-29T07:30:21.203Z,5.35
2023-03-29T07:32:47.933Z,5.27
2023-03-29T07:35:14.939Z,5.19
2023-03-29T07:37:41.516Z,5.36
2023-03-29T07:40:11.631Z,5.48
2023-03-29T07:42:38.338Z,5.52
2023-03-29T07:45:05.960Z,5.58
2023-03-29T07:47:32.812Z,5.58
2023-03-29T07:49:59.380Z,5.56
2023-03-29T07:52:25.947Z,5.61
2023-03-29T07:54:52.573Z,5.75
2023-03-29T07:57:20.563Z,5.91
2023-03-29T07:59:47.373Z,6.13
2023-03-29T08:02:14.064Z,6.13
2023-03-29T08:04:40.992Z,6.16
2023-03-29T08:07:07.767Z,6.26
2023-03-29T08:09:34.367Z,6.22
2023-03-29T08:12:00.931Z,6.12
2023-03-29T08:14:28.845Z,6.24
2023-03-29T08:16:55.402Z,6.16
2023-03-29T08:19:22.063Z,5.99
2023-03-29T08:21:48.715Z,5.86
2023-03-29T08:24:15.290Z,5.88
2023-03-29T08:26:41.859Z,5.90
2023-03-29T08:29:08.800Z,5.88
2023-03-29T08:31:36.814Z,5.96
2023-03-29T08:34:03.519Z,5.97
2023-03-29T08:36:30.048Z,5.86
2023-03-29T08:38:56.780Z,5.80
2023-03-29T08:41:42.714Z,5.95
2023-03-29T08:44:24.453Z,5.89
2023-03-29T08:47:01.236Z,6.02
2023-03-29T08:49:30.272Z,6.12
2023-03-29T08:52:02.331Z,6.34
2023-03-29T08:54:33.216Z,6.40
2023-03-29T08:57:07.151Z,6.48
2023-03-29T08:59:34.077Z,6.51
2023-03-29T09:02:04.733Z,6.58
2023-03-29T09:04:34.507Z,6.58
2023-03-29T09:07:02.487Z,6.75
2023-03-29T09:09:32.805Z,6.73
2023-03-29T09:12:11.092Z,6.61
2023-03-29T09:14:53.584Z,6.42
2023-03-29T09:17:34.629Z,6.41
2023-03-29T09:20:10.877Z,6.46
2023-03-29T09:22:48.578Z,6.60
2023-03-29T09:25:21.385Z,6.89
2023-03-29T09:27:56.513Z,6.97
2023-03-29T09:30:28.371Z,7.21
2023-03-29T09:33:00.522Z,7.09
2023-03-29T09:35:31.146Z,7.05
2023-03-29T09:37:57.971Z,7.23
2023-03-29T09:40:29.840Z,7.28
2023-03-29T09:42:57.902Z,7.34
2023-03-29T09:45:24.727Z,7.43
2023-03-29T09:47:55.265Z,7.38
2023-03-29T09:50:31.905Z,7.53
2023-03-29T09:52:59.304Z,7.50
2023-03-29T09:55:28.198Z,7.57
2023-03-29T09:57:58.083Z,7.51
2023-03-29T10:00:25.406Z,7.90
2023-03-29T10:02:52.616Z,7.88
2023-03-29T10:05:19.772Z,8.00
2023-03-29T10:07:51.816Z,7.93
2023-03-29T10:10:25.218Z,7.75
2023-03-29T10:12:53.891Z,7.92
2023-03-29T10:15:29.273Z,8.15
2023-03-29T10:17:59.598Z,8.20
2023-03-29T10:20:26.683Z,8.49
2023-03-29T10:22:58.176Z,8.52
2023-03-29T10:25:27.248Z,8.79
2023-03-29T10:28:02.049Z,8.79
2023-03-29T10:30:28.984Z,8.58
2023-03-29T10:32:57.863Z,8.52
2023-03-29T10:35:28.263Z,8.38
2023-03-29T10:37:58.272Z,8.46
2023-03-29T10:40:27.993Z,8.57
2023-03-29T10:42:58.421Z,8.74
2023-03-29T10:45:27.539Z,8.84
2023-03-29T10:47:55.652Z,9.23
2023-03-29T10:50:22.180Z,9.27
2023-03-29T10:52:48.850Z,9.46
2023-03-29T10:55:17.269Z,9.45
2023-03-29T10:57:52.761Z,9.38
2023-03-29T11:00:25.612Z,9.36
2023-03-29T11:03:18.796Z,9.45
2023-03-29T11:05:53.949Z,9.73
2023-03-29T11:08:31.908Z,9.68
2023-03-29T11:11:12.149Z,9.76
2023-03-29T11:13:48.732Z,9.41
2023-03-29T11:16:25.861Z,9.31
2023-03-29T11:19:28.054Z,9.25
2023-03-29T11:22:04.193Z,9.36
2023-03-29T11:24:50.861Z,9.46
2023-03-29T11:27:28.655Z,9.68
2023-03-29T11:30:06.998Z,9.74
2023-03-29T11:32:41.270Z,9.62
2023-03-29T11:35:22.318Z,9.96
2023-03-29T11:37:56.927Z,10.20
2023-03-29T11:40:36.289Z,10.35
2023-03-29T11:43:10.863Z,10.86
2023-03-29T11:45:44.136Z,10.98
2023-03-29T11:48:18.637Z,11.17
2023-03-29T11:50:50.419Z,11.09
2023-03-29T11:53:23.428Z,10.73
2023-03-29T11:55:51.007Z,10.62
2023-03-29T11:58:27.247Z,10.51
2023-03-29T12:00:56.219Z,10.89
2023-03-29T12:03:34.754Z,10.91
2023-03-29T12:06:07.792Z,11.14
2023-03-29T12:08:38.859Z,10.69
2023-03-29T12:11:11.766Z,10.48
2023-03-29T12:13:45.936Z,10.65
2023-03-29T12:16:17.413Z,10.66
2023-03-29T12:18:48.046Z,10.55
2023-03-29T12:21:19.692Z,10.72
2023-03-29T12:23:47.504Z,11.05
2023-03-29T12:26:24.721Z,11.18
2023-03-29T12:29:09.049Z,11.05
2023-03-29T12:31:43.991Z,11.29
2023-03-29T12:34:29.444Z,11.10
2023-03-29T12:37:16.147Z,11.10
2023-03-29T12:39:43.092Z,11.11
2023-03-29T12:42:16.583Z,11.05
2023-03-29T12:44:49.086Z,11.28
2023-03-29T12:47:20.747Z,11.09
2023-03-29T12:49:47.626Z,11.26
2023-03-29T12:52:24.968Z,11.35
2023-03-29T12:54:56.809Z,11.66
2023-03-29T12:57:28.465Z,11.94
2023-03-29T12:59:56.474Z,12.02
2023-03-29T13:02:34.599Z,12.10
2023-03-29T13:05:01.422Z,12.02
2023-03-29T13:07:31.447Z,12.39
2023-03-29T13:09:59.227Z,12.60
2023-03-29T13:12:30.204Z,12.47
2023-03-29T13:15:02.551Z,12.33
2023-03-29T13:17:38.992Z,12.54
2023-03-29T13:20:30.795Z,12.62
2023-03-29T13:23:15.037Z,12.23
2023-03-29T13:25:56.655Z,12.23
2023-03-29T13:28:32.189Z,12.42
2023-03-29T13:31:06.268Z,12.28
2023-03-29T13:33:48.378Z,12.09
2023-03-29T13:36:25.149Z,11.98
2023-03-29T13:38:54.161Z,11.94
2023-03-29T13:41:28.101Z,12.03
2023-03-29T13:43:56.373Z,12.46
2023-03-29T13:46:35.825Z,12.61
2023-03-29T13:49:06.583Z,12.41
2023-03-29T13:51:37.768Z,12.51
2023-03-29T13:54:15.284Z,12.95
2023-03-29T13:56:55.202Z,13.22
2023-03-29T13:59:29.658Z,13.53
2023-03-29T14:02:00.387Z,14.00
2023-03-29T14:04:31.527Z,14.39
2023-03-29T14:06:58.887Z,14.62
2023-03-29T14:09:29.289Z,13.95
2023-03-29T14:11:56.819Z,13.57
2023-03-29T14:14:26.155Z,13.68
2023-03-29T14:16:54.937Z,13.63
2023-03-29T14:19:30.744Z,13.57
2023-03-29T14:21:58.924Z,14.10
2023-03-29T14:24:27.909Z,13.70
2023-03-29T14:26:54.772Z,13.30
2023-03-29T14:29:23.488Z,13.05
2023-03-29T14:31:51.551Z,12.81
2023-03-29T14:34:19.200Z,12.66
2023-03-29T14:36:49.111Z,12.56
2023-03-29T14:39:18.105Z,12.61
2023-03-29T14:41:50.051Z,12.58
2023-03-29T14:44:19.938Z,12.59
2023-03-29T14:46:46.585Z,12.44
2023-03-29T14:49:15.763Z,12.44
2023-03-29T14:51:42.880Z,12.49
2023-03-29T14:54:19.425Z,12.54
2023-03-29T14:56:46.893Z,12.46
2023-03-29T14:59:25.441Z,12.28
2023-03-29T15:01:52.076Z,12.33
2023-03-29T15:04:19.026Z,12.11
2023-03-29T15:06:46.539Z,12.14
2023-03-29T15:09:18.124Z,12.05
2023-03-29T15:11:51.893Z,12.19
2023-03-29T15:14:20.454Z,12.07
2023-03-29T15:16:49.372Z,12.12
2023-03-29T15:19:18.263Z,11.86
2023-03-29T15:21:48.112Z,11.86
2023-03-29T15:24:22.981Z,11.86
2023-03-29T15:27:00.057Z,11.93
2023-03-29T15:29:35.026Z,11.79
2023-03-29T15:32:01.822Z,11.76
2023-03-29T15:34:29.518Z,11.82
2023-03-29T15:36:56.473Z,11.74
2023-03-29T15:39:25.494Z,11.68
2023-03-29T15:41:53.458Z,11.67
2023-03-29T15:44:22.721Z,11.67
2023-03-29T15:46:49.529Z,11.60
2023-03-29T15:49:16.105Z,11.62
2023-03-29T15:51:42.700Z,11.56
2023-03-29T15:54:09.284Z,11.62
2023-03-29T15:56:43.769Z,11.61
2023-03-29T15:59:11.947Z,11.49
2023-03-29T16:01:39.187Z,11.50
2023-03-29T16:04:09.329Z,11.44
2023-03-29T16:06:35.933Z,11.48
2023-03-29T16:09:03.005Z,11.46
2023-03-29T16:11:29.904Z,11.51
2023-03-29T16:13:57.999Z,11.46
2023-03-29T16:16:25.226Z,11.41
2023-03-29T16:18:51.901Z,11.42
2023-03-29T16:21:21.565Z,11.38
2023-03-29T16:23:48.506Z,11.30
2023-03-29T16:26:16.692Z,11.35
2023-03-29T16:28:43.813Z,11.31
2023-03-29T16:31:12.534Z,11.32
2023-03-29T16:33:39.604Z,11.29
2023-03-29T16:36:07.428Z,11.27
2023-03-29T16:38:34.225Z,11.23
2023-03-29T16:41:00.887Z,11.20
2023-03-29T16:43:27.733Z,11.19
2023-03-29T16:45:54.582Z,11.17
2023-03-29T16:48:22.543Z,11.14
2023-03-29T16:50:49.558Z,11.13
2023-03-29T16:53:16.334Z,11.09
2023-03-29T16:55:42.910Z,11.08
2023-03-29T16:58:09.462Z,11.05
2023-03-29T17:00:36.004Z,10.99
2023-03-29T17:03:02.750Z,10.97
2023-03-29T17:05:30.788Z,10.90
2023-03-29T17:07:57.377Z,10.83
2023-03-29T17:10:23.951Z,10.81
2023-03-29T17:12:50.537Z,10.78
2023-03-29T17:15:17.039Z,10.76
2023-03-29T17:17:43.655Z,10.68
2023-03-29T17:20:11.197Z,10.62
2023-03-29T17:22:39.344Z,10.56
2023-03-29T17:25:07.414Z,10.52
2023-03-29T17:27:34.227Z,10.47
2023-03-29T17:30:00.794Z,10.42
2023-03-29T17:32:27.706Z,10.38
2023-03-29T17:34:54.462Z,10.39
2023-03-29T17:37:21.048Z,10.32
2023-03-29T17:39:49.011Z,10.28
2023-03-29T17:42:15.572Z,10.22
2023-03-29T17:44:42.135Z,10.23
2023-03-29T17:47:08.752Z,10.22
2023-03-29T17:49:35.438Z,10.24
2023-03-29T17:52:01.978Z,10.20
2023-03-29T17:54:28.785Z,10.19
2023-03-29T17:56:56.731Z,10.29
2023-03-29T17:59:23.419Z,10.24
2023-03-29T18:01:49.959Z,10.22
2023-03-29T18:04:16.686Z,10.20
2023-03-29T18:06:43.436Z,10.23
2023-03-29T18:09:10.023Z,10.29
2023-03-29T18:11:36.873Z,10.23
2023-03-29T18:14:04.745Z,10.24
2023-03-29T18:16:31.371Z,10.22
2023-03-29T18:18:57.956Z,10.24
2023-03-29T18:21:24.517Z,10.21
2023-03-29T18:23:51.177Z,10.19
2023-03-29T18:26:17.992Z,10.32
2023-03-29T18:28:45.796Z,10.28
2023-03-29T18:31:16.795Z,10.22
2023-03-29T18:33:43.436Z,10.30
2023-03-29T18:36:13.253Z,10.36
2023-03-29T18:38:40.947Z,10.40
2023-03-29T18:41:07.603Z,10.38
2023-03-29T18:43:34.463Z,10.40
2023-03-29T18:46:01.578Z,10.42
2023-03-29T18:48:30.274Z,10.47
2023-03-29T18:50:57.143Z,10.53
2023-03-29T18:53:23.867Z,10.59
2023-03-29T18:55:50.443Z,10.57
2023-03-29T18:58:16.955Z,10.60
2023-03-29T19:00:43.850Z,10.61
2023-03-29T19:03:10.507Z,10.55
2023-03-29T19:05:39.426Z,10.52
2023-03-29T19:08:06.584Z,10.46
2023-03-29T19:10:35.010Z,10.47
2023-03-29T19:13:01.577Z,10.47
2023-03-29T19:15:28.440Z,10.57
2023-03-29T19:17:55.389Z,10.63
2023-03-29T19:20:22.040Z,10.78
2023-03-29T19:22:49.941Z,10.75
2023-03-29T19:25:16.768Z,10.72
2023-03-29T19:27:43.324Z,10.88
2023-03-29T19:30:10.978Z,10.93
2023-03-29T19:32:37.597Z,10.89
2023-03-29T19:35:04.781Z,10.80
2023-03-29T19:37:31.365Z,10.78
2023-03-29T19:39:59.311Z,10.79
2023-03-29T19:42:25.845Z,10.72
2023-03-29T19:44:52.571Z,10.82
2023-03-29T19:47:19.065Z,10.87
2023-03-29T19:49:45.638Z,10.92
2023-03-29T19:52:12.164Z,10.87
2023-03-29T19:54:38.778Z,10.86
2023-03-29T19:57:06.808Z,10.85
2023-03-29T19:59:33.466Z,10.91
2023-03-29T20:02:00.252Z,11.01
2023-03-29T20:04:27.079Z,10.96
2023-03-29T20:06:53.788Z,10.97
2023-03-29T20:09:20.356Z,11.08
2023-03-29T20:11:46.991Z,11.05
2023-03-29T20:14:15.024Z,11.11
2023-03-29T20:16:41.631Z,11.12
2023-03-29T20:19:09.514Z,11.11
2023-03-29T20:21:36.125Z,11.15
2023-03-29T20:24:03.263Z,11.06
2023-03-29T20:26:30.237Z,11.07
2023-03-29T20:28:56.881Z,11.06
2023-03-29T20:31:25.006Z,11.07
2023-03-29T20:33:51.782Z,11.04
2023-03-29T20:36:18.595Z,11.10
2023-03-29T20:38:45.596Z,11.13
2023-03-29T20:41:12.125Z,11.12
2023-03-29T20:43:38.632Z,11.08
2023-03-29T20:46:06.226Z,11.08
2023-03-29T20:48:34.090Z,11.07
2023-03-29T20:51:00.805Z,11.08
2023-03-29T20:53:27.659Z,11.00
2023-03-29T20:55:54.210Z,11.01
2023-03-29T20:58:20.795Z,11.03
2023-03-29T21:00:47.317Z,10.96
2023-03-29T21:03:13.990Z,10.96
2023-03-29T21:05:41.954Z,10.97
2023-03-29T21:08:08.557Z,10.92
2023-03-29T21:10:35.154Z,10.98
2023-03-29T21:13:01.940Z,11.01
2023-03-29T21:15:29.027Z,11.02
2023-03-29T21:17:55.693Z,11.07
2023-03-29T21:20:22.369Z,11.03
2023-03-29T21:22:50.298Z,11.09
2023-03-29T21:25:17.157Z,11.02
2023-03-29T21:27:43.707Z,11.02
2023-03-29T21:30:11.121Z,11.02
2023-03-29T21:32:37.966Z,10.97
2023-03-29T21:35:05.325Z,10.90
2023-03-29T21:37:31.864Z,10.99
2023-03-29T21:39:59.740Z,10.93
2023-03-29T21:42:26.318Z,10.88
2023-03-29T21:44:52.921Z,10.87
2023-03-29T21:47:19.531Z,10.74
2023-03-29T21:49:46.115Z,10.76
2023-03-29T21:52:12.660Z,10.81
2023-03-29T21:54:39.155Z,10.86
2023-03-29T21:57:07.118Z,10.91
2023-03-29T21:59:33.892Z,10.93
2023-03-29T22:02:00.536Z,11.00
2023-03-29T22:04:36.567Z,10.96
2023-03-29T22:07:04.674Z,10.94
2023-03-29T22:09:32.277Z,10.82
2023-03-29T22:11:58.816Z,10.85
2023-03-29T22:14:27.060Z,10.79
2023-03-29T22:16:53.626Z,10.67
2023-03-29T22:19:20.390Z,10.73
2023-03-29T22:21:47.112Z,10.64
2023-03-29T22:24:13.640Z,10.57
2023-03-29T22:26:40.229Z,10.53
2023-03-29T22:29:07.006Z,10.54
2023-03-29T22:31:35.035Z,10.49
2023-03-29T22:34:01.597Z,10.48
2023-03-29T22:36:29.929Z,10.40
2023-03-29T22:38:57.591Z,10.36
2023-03-29T22:41:25.406Z,10.30
2023-03-29T22:43:52.855Z,10.28
2023-03-29T22:46:20.427Z,10.27
2023-03-29T22:48:48.421Z,10.20
2023-03-29T22:51:15.484Z,10.14
2023-03-29T22:53:42.017Z,10.06
2023-03-29T22:56:08.743Z,10.14
2023-03-29T22:58:35.318Z,10.16
2023-03-29T23:01:02.395Z,10.32
2023-03-29T23:03:29.269Z,10.32
2023-03-29T23:05:58.694Z,10.30
2023-03-29T23:08:26.068Z,10.27
2023-03-29T23:10:52.866Z,10.20
2023-03-29T23:13:20.147Z,10.21
2023-03-29T23:15:48.479Z,10.29
2023-03-29T23:18:16.733Z,10.22
2023-03-29T23:20:43.716Z,10.08
2023-03-29T23:23:11.615Z,10.34
2023-03-29T23:25:38.218Z,10.43
2023-03-29T23:28:04.965Z,10.40
2023-03-29T23:30:33.645Z,10.53
2023-03-29T23:33:00.353Z,10.53
2023-03-29T23:35:27.022Z,10.54
2023-03-29T23:37:53.774Z,10.54
2023-03-29T23:40:21.851Z,10.52
2023-03-29T23:42:48.485Z,10.41
2023-03-29T23:45:17.311Z,10.48
2023-03-29T23:47:45.549Z,10.47
2023-03-29T23:50:14.006Z,10.38
2023-03-29T23:52:41.390Z,10.39
2023-03-29T23:55:12.365Z,10.29
2023-03-29T23:57:40.374Z,10.22
